Flight Track Log - Related Links

Times and Time Zones

All times are in EST time to prevent confusion due to time zone crossing. See the CNS128 flight status page for this flight to view local times or setup timezone preferences in your user account.

Time Position Orientation Groundspeed Altitude Reporting Facility
EST Latitude Longitude Course Direction KTS MPH feet Rate Location/Type
Wed 03:51:32 PM 43.0833 -70.8333 304° West 79 91 900  Level KA90
Wed 03:52:56 PM 43.1000 -70.8667 304° West 139 160 3,300 1,760 Climbing KA90
Wed 03:54:02 PM 43.0500 -70.8667 180° South 133 153 5,300 1,350 Climbing KA90
Wed 03:54:56 PM 43.0167 -70.8833 200° South 169 194 6,000 350 Climbing KA90
Wed 03:56:02 PM 42.9500 -70.9000 190° South 200 230 6,000 -198 Level KA90
Wed 03:56:57 PM 42.9000 -70.8833 166° South 227 261 5,600 -476 Descending KA90
Wed 03:58:08 PM 42.8589 -70.8161 130° Southeast 224 258 5,000 -227 Descending Boston Center
Wed 03:59:09 PM 42.8044 -70.7917 162° South 220 253 5,100  Climbing Boston Center
Wed 04:00:11 PM 42.7475 -70.8211 201° Southwest 217 250 5,000 -49 Descending Boston Center
Wed 04:01:12 PM 42.6881 -70.8528 201° Southwest 213 245 5,000 49 Level Boston Center
Wed 04:02:13 PM 42.6317 -70.8775 198° South 213 245 5,100 114 Climbing Boston Center
Wed 04:02:57 PM 42.6000 -70.9000 208° Southwest 223 257 5,200 -58 Climbing KA90
Wed 04:03:57 PM 42.5500 -70.9667 224° Southwest 216 249 5,000 -100 Descending KA90
Wed 04:04:57 PM 42.5000 -71.0000 206° Southwest 233 268 5,000 -150 Level KA90
Wed 04:05:57 PM 42.4500 -70.9333 135° Southeast 246 283 4,700 -750 Descending KA90
Wed 04:06:57 PM 42.4000 -70.8833 144° Southeast 231 266 3,500 -1,100 Descending KA90
Wed 04:07:57 PM 42.3500 -70.8667 166° South 205 236 2,500 -1,000 Descending KA90
Wed 04:08:57 PM 42.3167 -70.9167 228° Southwest 160 184 1,500 -887 Descending KA90
Wed 04:09:52 PM 42.3167 -70.9500 270° West 140 161 800 -522 Descending KA90
Wed 04:10:52 PM 42.3333 -70.9833 304° West 95 109 500 -300 Descending KA90
Wed 04:13:00 PM 42.3500 -71.0000 289° West  Level FlightAware Approximate

Login

Don't have an account? Register now (free) for customized features, flight alerts, and more!